.
WxDataArchive / Data Records for 2005-12-16
2005-12-15 December 2005 2005-12-17

Data Records for Friday, 16 December 2005

Time	Temp	Chill	HIndex	Humid	Dewpt	 Wind 	HiWind	WindDir	Rain 	Barom 
-----	----	-----	------	-----	-----	------	------	-------	-----	----- 
00:00	31.8	31.8	31.8	85	27.8	2	5	248	0.00	29.721 
00:05	31.8	31.8	31.8	86	28.1	1	3	248	0.00	29.721 
00:10	31.8	31.8	31.8	85	27.8	2	6	248	0.00	29.721 
00:15	31.8	31.8	31.8	86	28.1	1	4	248	0.00	29.721 
00:20	31.6	31.6	31.6	85	27.6	2	5	248	0.00	29.721 
00:25	31.5	31.5	31.5	84	27.2	3	7	248	0.00	29.721 
00:30	31.3	31.3	31.3	81	26.2	3	6	248	0.00	29.722 
00:35	31.0	25.9	31.0	76	24.3	5	11	248	0.00	29.722 
00:40	30.9	30.9	30.9	77	24.6	3	10	248	0.00	29.722 
00:45	30.6	30.6	30.6	76	24.0	3	7	248	0.00	29.714 
00:50	30.3	30.3	30.3	76	23.7	3	6	248	0.00	29.714 
00:55	30.0	30.0	30.0	77	23.7	2	5	248	0.00	29.714 
01:00	29.7	29.7	29.7	77	23.4	2	4	248	0.00	29.718 
01:05	29.5	29.5	29.5	76	22.9	3	6	248	0.00	29.718 
01:10	29.5	29.5	29.5	77	23.2	2	5	248	0.00	29.718 
01:15	29.4	29.4	29.4	77	23.1	1	3	248	0.00	29.715 
01:20	29.4	29.4	29.4	77	23.1	2	5	225	0.00	29.715 
01:25	29.4	29.4	29.4	77	23.1	2	5	225	0.00	29.715 
01:30	29.5	29.5	29.5	77	23.2	2	4	248	0.00	29.717 
01:35	29.5	29.5	29.5	77	23.2	2	5	248	0.00	29.717 
01:40	29.5	29.5	29.5	77	23.2	2	3	248	0.00	29.717 
01:45	29.5	29.5	29.5	77	23.2	2	4	248	0.00	29.717 
01:50	29.5	29.5	29.5	78	23.5	2	5	248	0.00	29.717 
01:55	29.5	29.5	29.5	78	23.5	1	4	248	0.00	29.717 
02:00	29.5	29.5	29.5	78	23.5	2	6	248	0.00	29.723 
02:05	29.7	29.7	29.7	78	23.7	2	5	248	0.00	29.723 
02:10	29.8	29.8	29.8	78	23.8	3	7	248	0.00	29.723 
02:15	29.8	29.8	29.8	77	23.5	3	10	248	0.00	29.730 
02:20	29.8	29.8	29.8	77	23.5	2	5	248	0.00	29.730 
02:25	29.7	29.7	29.7	76	23.1	3	12	248	0.00	29.730 
02:30	29.7	25.4	29.7	74	22.4	4	11	248	0.00	29.737 
02:35	29.7	25.4	29.7	75	22.8	4	10	248	0.00	29.737 
02:40	29.5	29.5	29.5	74	22.3	3	6	248	0.00	29.737 
02:45	29.4	29.4	29.4	74	22.2	3	10	270	0.00	29.739 
02:50	29.4	29.4	29.4	75	22.5	3	11	248	0.00	29.739 
02:55	29.1	24.7	29.1	75	22.2	4	11	270	0.00	29.739 
03:00	29.0	24.6	29.0	76	22.4	4	11	248	0.00	29.745 
03:05	28.8	28.8	28.8	76	22.2	2	7	248	0.00	29.745 
03:10	28.7	28.7	28.7	77	22.4	3	9	270	0.00	29.745 
03:15	28.5	24.0	28.5	76	21.9	4	10	248	0.00	29.747 
03:20	28.2	23.7	28.2	76	21.6	4	11	270	0.00	29.747 
03:25	27.9	23.3	27.9	75	21.0	4	9	248	0.00	29.747 
03:30	27.8	27.8	27.8	76	21.2	2	6	248	0.00	29.754 
03:35	27.6	27.6	27.6	75	20.7	3	7	270	0.00	29.754 
03:40	27.5	22.9	27.5	75	20.6	4	12	248	0.00	29.754 
03:45	27.3	27.3	27.3	75	20.4	3	8	270	0.00	29.752 
03:50	27.3	27.3	27.3	77	21.1	3	7	270	0.00	29.752 
03:55	27.2	22.5	27.2	78	21.3	4	7	270	0.00	29.752 
04:00	27.0	27.0	27.0	79	21.4	3	11	270	0.00	29.755 
04:05	26.9	26.9	26.9	80	21.6	2	5	248	0.00	29.755 
04:10	26.9	26.9	26.9	81	21.9	3	7	248	0.00	29.755 
04:15	26.9	26.9	26.9	81	21.9	3	10	248	0.00	29.755 
04:20	26.9	26.9	26.9	81	21.9	3	7	270	0.00	29.755 
04:25	26.7	26.7	26.7	81	21.7	3	9	248	0.00	29.755 
04:30	26.7	26.7	26.7	82	22.0	1	3	248	0.00	29.760 
04:35	26.6	26.6	26.6	81	21.6	3	9	270	0.00	29.760 
04:40	26.6	26.6	26.6	81	21.6	3	9	248	0.00	29.760 
04:45	26.4	21.6	26.4	80	21.1	4	10	270	0.00	29.764 
04:50	26.1	20.1	26.1	79	20.5	5	13	270	0.00	29.764 
04:55	26.0	26.0	26.0	81	21.0	3	9	248	0.00	29.764 
05:00	25.8	20.9	25.8	80	20.5	4	11	270	0.00	29.764 
05:05	25.7	20.8	25.7	80	20.4	4	11	248	0.00	29.764 
05:10	25.7	20.8	25.7	80	20.4	4	10	248	0.00	29.764 
05:15	25.6	25.6	25.6	80	20.3	3	8	270	0.00	29.763 
05:20	25.6	25.6	25.6	80	20.3	3	6	248	0.00	29.763 
05:25	25.4	25.4	25.4	79	19.8	3	9	248	0.00	29.763 
05:30	25.3	20.3	25.3	79	19.7	4	11	270	0.00	29.762 
05:35	25.0	25.0	25.0	78	19.1	3	7	270	0.00	29.762 
05:40	24.7	24.7	24.7	78	18.8	3	9	248	0.00	29.762 
05:45	24.5	24.5	24.5	78	18.6	2	5	248	0.00	29.767 
05:50	24.4	24.4	24.4	77	18.2	3	9	248	0.00	29.767 
05:55	24.5	24.5	24.5	77	18.3	3	11	270	0.00	29.767 
06:00	24.4	24.4	24.4	78	18.5	2	6	248	0.00	29.765 
06:05	24.4	24.4	24.4	79	18.8	2	6	248	0.00	29.765 
06:10	24.5	24.5	24.5	80	19.2	2	5	248	0.00	29.765 
06:15	24.7	24.7	24.7	80	19.4	2	5	248	0.00	29.763 
06:20	24.7	24.7	24.7	80	19.4	2	4	248	0.00	29.763 
06:25	24.7	24.7	24.7	81	19.7	2	5	248	0.00	29.763 
06:30	24.7	24.7	24.7	80	19.4	3	9	248	0.00	29.769 
06:35	24.8	24.8	24.8	81	19.8	2	7	248	0.00	29.769 
06:40	24.8	24.8	24.8	81	19.8	2	5	248	0.00	29.769 
06:45	24.8	24.8	24.8	81	19.8	2	9	225	0.00	29.771 
06:50	24.7	24.7	24.7	81	19.7	1	3	248	0.00	29.771 
06:55	24.7	24.7	24.7	82	20.0	2	4	248	0.00	29.771 
07:00	24.7	24.7	24.7	83	20.3	2	5	248	0.00	29.769 
07:05	24.7	24.7	24.7	83	20.3	2	4	248	0.00	29.769 
07:10	24.7	24.7	24.7	84	20.6	1	3	248	0.00	29.769 
07:15	24.7	24.7	24.7	84	20.6	1	6	225	0.00	29.767 
07:20	24.7	24.7	24.7	84	20.6	2	5	248	0.00	29.767 
07:25	24.8	24.8	24.8	84	20.7	2	4	248	0.00	29.767 
07:30	24.8	24.8	24.8	84	20.7	2	6	248	0.00	29.766 
07:35	25.0	25.0	25.0	84	20.9	2	5	248	0.00	29.766 
07:40	25.1	25.1	25.1	83	20.7	3	6	248	0.00	29.766 
07:45	25.3	25.3	25.3	82	20.6	3	10	248	0.00	29.766 
07:50	25.4	25.4	25.4	81	20.4	3	10	248	0.00	29.766 
07:55	25.4	25.4	25.4	81	20.4	3	6	248	0.00	29.766 
08:00	25.4	25.4	25.4	81	20.4	3	9	248	0.00	29.767 
08:05	25.4	25.4	25.4	82	20.7	2	6	248	0.00	29.767 
08:10	25.3	20.3	25.3	81	20.3	4	13	248	0.00	29.767 
08:15	25.3	20.3	25.3	81	20.3	4	9	248	0.00	29.769 
08:20	25.3	25.3	25.3	81	20.3	3	7	248	0.00	29.769 
08:25	25.1	25.1	25.1	82	20.4	2	6	248	0.00	29.769 
08:30	25.1	20.1	25.1	82	20.4	4	7	248	0.00	29.775 
08:35	25.1	25.1	25.1	82	20.4	3	7	248	0.00	29.775 
08:40	25.1	20.1	25.1	82	20.4	4	7	248	0.00	29.775 
08:45	25.1	25.1	25.1	83	20.7	2	7	248	0.00	29.781 
08:50	25.1	25.1	25.1	83	20.7	3	5	248	0.00	29.781 
08:55	25.1	25.1	25.1	84	21.0	2	5	248	0.00	29.781 
09:00	25.1	25.1	25.1	84	21.0	2	5	248	0.00	29.783 
09:05	25.0	25.0	25.0	84	20.9	3	9	248	0.00	29.783 
09:10	25.1	25.1	25.1	85	21.2	2	5	248	0.00	29.783 
09:15	25.1	25.1	25.1	85	21.2	3	5	248	0.00	29.791 
09:20	25.1	25.1	25.1	85	21.2	2	6	248	0.00	29.791 
09:25	25.1	25.1	25.1	85	21.2	3	7	248	0.00	29.791 
09:30	25.4	25.4	25.4	85	21.5	2	7	248	0.00	29.799 
09:35	25.4	25.4	25.4	84	21.3	3	6	248	0.00	29.799 
09:40	25.4	25.4	25.4	84	21.3	3	7	248	0.00	29.799 
09:45	25.4	25.4	25.4	84	21.3	2	4	248	0.00	29.806 
09:50	25.4	25.4	25.4	84	21.3	3	5	248	0.00	29.806 
09:55	25.4	25.4	25.4	84	21.3	3	7	248	0.00	29.806 
10:00	25.4	25.4	25.4	84	21.3	2	7	248	0.00	29.813 
10:05	25.4	25.4	25.4	85	21.5	2	6	248	0.00	29.813 
10:10	25.4	25.4	25.4	85	21.5	3	6	248	0.00	29.813 
10:15	25.6	25.6	25.6	86	22.0	3	6	248	0.00	29.821 
10:20	25.6	25.6	25.6	85	21.7	3	7	248	0.00	29.821 
10:25	25.7	25.7	25.7	85	21.8	3	7	248	0.00	29.821 
10:30	25.8	25.8	25.8	85	21.9	3	5	248	0.00	29.823 
10:35	26.0	26.0	26.0	85	22.1	3	7	248	0.00	29.823 
10:40	26.1	21.3	26.1	85	22.2	4	9	248	0.00	29.823 
10:45	26.3	21.5	26.3	84	22.1	4	9	248	0.00	29.828 
10:50	26.4	21.6	26.4	83	22.0	4	13	248	0.00	29.828 
10:55	26.7	22.0	26.7	82	22.0	4	9	248	0.00	29.828 
11:00	26.9	22.2	26.9	83	22.4	4	9	248	0.00	29.830 
11:05	26.9	22.2	26.9	82	22.2	4	10	248	0.00	29.830 
11:10	27.2	22.5	27.2	81	22.2	4	10	248	0.00	29.830 
11:15	27.5	21.8	27.5	80	22.2	5	11	248	0.00	29.828 
11:20	27.8	23.2	27.8	79	22.2	4	13	248	0.00	29.828 
11:25	27.6	21.9	27.6	78	21.7	5	14	270	0.00	29.828 
11:30	27.6	21.9	27.6	77	21.4	5	13	270	0.00	29.826 
11:35	27.6	20.2	27.6	77	21.4	7	17	270	0.00	29.826 
11:40	27.8	21.2	27.8	75	20.9	6	18	248	0.00	29.826 
11:45	27.6	21.0	27.6	74	20.4	6	16	270	0.00	29.828 
11:50	27.6	21.0	27.6	73	20.1	6	18	248	0.00	29.828 
11:55	27.9	21.3	27.9	73	20.4	6	12	248	0.00	29.828 
12:00	27.8	20.4	27.8	73	20.3	7	16	270	0.00	29.828 
12:05	27.6	21.9	27.6	75	20.7	5	13	270	0.00	29.828 
12:10	27.5	22.9	27.5	77	21.3	4	7	270	0.00	29.828 
12:15	27.6	23.0	27.6	78	21.7	4	10	270	0.00	29.832 
12:20	27.6	21.0	27.6	77	21.4	6	14	248	0.00	29.832 
12:25	27.8	21.2	27.8	75	20.9	6	14	270	0.00	29.832 
12:30	28.1	20.8	28.1	72	20.3	7	14	248	0.00	29.826 
12:35	28.4	21.2	28.4	71	20.2	7	19	270	0.00	29.826 
12:40	28.5	20.6	28.5	67	19.0	8	18	248	0.00	29.826 
12:45	28.5	20.6	28.5	68	19.3	8	22	270	0.00	29.831 
12:50	27.9	19.2	27.9	73	20.4	9	23	270	0.00	29.831 
12:55	27.3	18.5	27.3	74	20.1	9	21	270	0.00	29.831 
13:00	27.6	21.9	27.6	73	20.1	5	15	270	0.00	29.835 
13:05	27.8	19.7	27.8	71	19.6	8	18	270	0.00	29.835 
13:10	27.8	20.4	27.8	72	20.0	7	16	270	0.00	29.835 
13:15	27.6	18.3	27.6	73	20.1	10	18	270	0.00	29.833 
13:20	27.2	19.7	27.2	76	20.7	7	16	270	0.00	29.833 
13:25	26.3	19.4	26.3	82	21.6	6	15	270	0.00	29.833 
13:30	25.4	18.4	25.4	82	20.7	6	13	270	0.00	29.854 
13:35	25.4	19.3	25.4	81	20.4	5	14	270	0.00	29.854 
13:40	26.0	19.1	26.0	78	20.1	6	14	270	0.00	29.854 
13:45	26.4	20.5	26.4	75	19.6	5	18	270	0.00	29.855 
13:50	26.6	18.3	26.6	73	19.1	8	19	270	0.00	29.855 
13:55	26.7	19.9	26.7	74	19.5	6	13	270	0.00	29.855 
14:00	26.7	19.9	26.7	74	19.5	6	15	270	0.00	29.864 
14:05	26.7	19.1	26.7	74	19.5	7	21	248	0.00	29.864 
14:10	26.6	19.8	26.6	75	19.8	6	14	270	0.00	29.864 
14:15	26.3	19.4	26.3	71	18.2	6	22	270	0.00	29.879 
14:20	26.1	18.4	26.1	70	17.7	7	21	270	0.00	29.879 
14:25	26.4	18.0	26.4	68	17.3	8	17	270	0.00	29.879 
14:30	26.7	19.1	26.7	66	16.9	7	16	270	0.00	29.890 
14:35	26.7	19.1	26.7	66	16.9	7	17	270	0.00	29.890 
14:40	26.6	19.0	26.6	65	16.4	7	15	270	0.00	29.890 
14:45	26.3	17.9	26.3	65	16.2	8	17	270	0.00	29.900 
14:50	26.6	20.7	26.6	66	16.8	5	16	270	0.00	29.900 
14:55	26.9	21.1	26.9	64	16.4	5	14	270	0.00	29.900 
15:00	26.7	19.1	26.7	65	16.5	7	18	270	0.00	29.911 
15:05	26.7	20.9	26.7	65	16.5	5	17	270	0.00	29.911 
15:10	26.6	20.7	26.6	65	16.4	5	11	270	0.00	29.911 
15:15	26.6	20.7	26.6	65	16.4	5	13	270	0.00	29.926 
15:20	26.9	22.2	26.9	65	16.7	4	10	270	0.00	29.926 
15:25	27.0	20.3	27.0	65	16.8	6	14	270	0.00	29.926 
15:30	27.0	18.8	27.0	65	16.8	8	16	270	0.00	29.929 
15:35	26.9	21.1	26.9	66	17.1	5	15	270	0.00	29.929 
15:40	27.0	21.2	27.0	66	17.2	5	13	270	0.00	29.929 
15:45	27.2	20.5	27.2	66	17.4	6	13	270	0.00	29.942 
15:50	27.2	20.5	27.2	67	17.7	6	17	270	0.00	29.942 
15:55	27.2	20.5	27.2	67	17.7	6	16	270	0.00	29.942 
16:00	27.2	21.4	27.2	68	18.1	5	15	270	0.00	29.946 
16:05	27.2	22.5	27.2	69	18.4	4	9	270	0.00	29.946 
16:10	27.0	18.8	27.0	69	18.2	8	19	270	0.00	29.946 
16:15	27.0	20.3	27.0	70	18.5	6	16	248	0.00	29.958 
16:20	26.9	21.1	26.9	70	18.4	5	14	270	0.00	29.958 
16:25	26.7	19.9	26.7	71	18.6	6	13	270	0.00	29.958 
16:30	26.7	20.9	26.7	73	19.2	5	14	270	0.00	29.965 
16:35	26.6	19.8	26.6	73	19.1	6	14	248	0.00	29.965 
16:40	26.6	19.8	26.6	73	19.1	6	19	270	0.00	29.965 
16:45	26.4	20.5	26.4	74	19.3	5	14	270	0.00	29.976 
16:50	26.3	19.4	26.3	75	19.5	6	16	270	0.00	29.976 
16:55	26.3	21.5	26.3	76	19.8	4	7	270	0.00	29.976 
17:00	26.1	20.1	26.1	74	19.0	5	14	270	0.00	29.984 
17:05	26.0	20.0	26.0	74	18.9	5	14	270	0.00	29.984 
17:10	25.8	19.8	25.8	74	18.7	5	13	270	0.00	29.984 
17:15	25.8	18.8	25.8	73	18.4	6	23	270	0.00	29.994 
17:20	25.7	18.7	25.7	73	18.3	6	11	248	0.00	29.994 
17:25	25.7	20.8	25.7	73	18.3	4	12	270	0.00	29.994 
17:30	25.6	17.8	25.6	73	18.2	7	23	270	0.00	29.999 
17:35	25.6	19.6	25.6	73	18.2	5	13	270	0.00	29.999 
17:40	25.4	19.3	25.4	73	18.0	5	13	270	0.00	29.999 
17:45	25.4	20.5	25.4	73	18.0	4	10	248	0.00	30.010 
17:50	25.3	19.2	25.3	73	17.9	5	12	270	0.00	30.010 
17:55	25.3	20.3	25.3	73	17.9	4	10	270	0.00	30.010 
18:00	25.1	19.0	25.1	73	17.7	5	18	270	0.00	30.017 
18:05	25.0	20.0	25.0	74	17.9	4	7	270	0.00	30.017 
18:10	25.0	18.9	25.0	74	17.9	5	12	270	0.00	30.017 
18:15	24.8	19.8	24.8	74	17.7	4	6	248	0.00	30.026 
18:20	24.7	24.7	24.7	75	17.9	3	7	270	0.00	30.026 
18:25	24.8	19.8	24.8	75	18.0	4	7	248	0.00	30.026 
18:30	24.8	19.8	24.8	75	18.0	4	11	270	0.00	30.041 
18:35	25.1	20.1	25.1	75	18.3	4	9	248	0.00	30.041 
18:40	25.1	20.1	25.1	75	18.3	4	12	270	0.00	30.041 
18:45	25.1	20.1	25.1	75	18.3	4	11	270	0.00	30.046 
18:50	25.3	20.3	25.3	75	18.5	4	13	270	0.00	30.046 
18:55	25.3	20.3	25.3	75	18.5	4	12	270	0.00	30.046 
19:00	25.1	20.1	25.1	76	18.6	4	10	248	0.00	30.055 
19:05	25.3	18.3	25.3	76	18.8	6	12	270	0.00	30.055 
19:10	25.3	20.3	25.3	76	18.8	4	12	248	0.00	30.055 
19:15	25.4	19.3	25.4	76	18.9	5	14	248	0.00	30.058 
19:20	25.4	18.4	25.4	76	18.9	6	13	248	0.00	30.058 
19:25	25.6	19.6	25.6	76	19.1	5	11	248	0.00	30.058 
19:30	25.6	20.7	25.6	76	19.1	4	11	270	0.00	30.071 
19:35	25.7	20.8	25.7	76	19.2	4	10	270	0.00	30.071 
19:40	25.7	25.7	25.7	76	19.2	3	7	270	0.00	30.071 
19:45	25.7	25.7	25.7	75	18.9	3	7	270	0.00	30.078 
19:50	25.7	19.7	25.7	74	18.6	5	12	270	0.00	30.078 
19:55	25.7	19.7	25.7	73	18.3	5	12	248	0.00	30.078 
20:00	25.7	18.7	25.7	71	17.6	6	12	270	0.00	30.088 
20:05	25.7	18.7	25.7	71	17.6	6	13	270	0.00	30.088 
20:10	25.6	17.1	25.6	70	17.2	8	16	270	0.00	30.088 
20:15	25.6	16.4	25.6	68	16.5	9	22	270	0.00	30.101 
20:20	25.4	19.3	25.4	68	16.3	5	13	270	0.00	30.101 
20:25	25.3	19.2	25.3	67	15.9	5	17	270	0.00	30.101 
20:30	25.1	19.0	25.1	67	15.7	5	12	270	0.00	30.105 
20:35	25.0	25.0	25.0	68	16.0	3	7	270	0.00	30.105 
20:40	24.8	18.6	24.8	68	15.8	5	14	270	0.00	30.105 
20:45	24.8	19.8	24.8	68	15.8	4	10	270	0.00	30.117 
20:50	24.8	17.7	24.8	69	16.1	6	15	270	0.00	30.117 
20:55	24.8	19.8	24.8	69	16.1	4	18	270	0.00	30.117 
21:00	24.7	24.7	24.7	70	16.3	3	10	248	0.00	30.121 
21:05	24.7	19.6	24.7	70	16.3	4	12	270	0.00	30.121 
21:10	24.7	18.5	24.7	70	16.3	5	10	270	0.00	30.121 
21:15	24.5	18.3	24.5	70	16.1	5	17	270	0.00	30.126 
21:20	24.5	18.3	24.5	69	15.8	5	14	270	0.00	30.126 
21:25	24.5	18.3	24.5	69	15.8	5	17	270	0.00	30.126 
21:30	24.5	24.5	24.5	70	16.1	3	7	270	0.00	30.137 
21:35	24.4	19.3	24.4	69	15.7	4	10	270	0.00	30.137 
21:40	24.4	18.1	24.4	69	15.7	5	14	270	0.00	30.137 
21:45	24.4	24.4	24.4	69	15.7	3	6	270	0.00	30.141 
21:50	24.2	24.2	24.2	69	15.5	3	7	248	0.00	30.141 
21:55	24.4	19.3	24.4	69	15.7	4	10	270	0.00	30.141 
22:00	24.4	24.4	24.4	68	15.4	3	10	248	0.00	30.151 
22:05	24.4	24.4	24.4	69	15.7	2	7	248	0.00	30.151 
22:10	24.4	24.4	24.4	69	15.7	3	7	248	0.00	30.151 
22:15	24.2	24.2	24.2	69	15.5	3	8	248	0.00	30.152 
22:20	24.2	24.2	24.2	69	15.5	3	7	270	0.00	30.152 
22:25	24.2	19.1	24.2	69	15.5	4	12	248	0.00	30.152 
22:30	24.2	24.2	24.2	69	15.5	2	5	270	0.00	30.159 
22:35	24.2	24.2	24.2	69	15.5	3	9	248	0.00	30.159 
22:40	24.2	24.2	24.2	69	15.5	3	7	248	0.00	30.159 
22:45	24.2	24.2	24.2	69	15.5	3	9	248	0.00	30.169 
22:50	24.2	24.2	24.2	70	15.9	2	6	248	0.00	30.169 
22:55	24.2	19.1	24.2	70	15.9	4	7	270	0.00	30.169 
23:00	24.2	17.9	24.2	69	15.5	5	13	248	0.00	30.171 
23:05	24.4	24.4	24.4	70	16.0	3	10	270	0.00	30.171 
23:10	24.2	19.1	24.2	69	15.5	4	9	270	0.00	30.171 
23:15	24.2	24.2	24.2	70	15.9	3	7	270	0.00	30.171 
23:20	24.2	19.1	24.2	70	15.9	4	11	248	0.00	30.171 
23:25	24.2	19.1	24.2	70	15.9	4	10	248	0.00	30.171 
23:30	24.2	19.1	24.2	70	15.9	4	10	248	0.00	30.175 
23:35	24.2	24.2	24.2	70	15.9	3	12	270	0.00	30.175 
23:40	24.2	24.2	24.2	70	15.9	3	9	270	0.00	30.175 
23:45	24.1	24.1	24.1	70	15.8	3	9	248	0.00	30.180 
23:50	23.9	18.7	23.9	70	15.6	4	10	248	0.00	30.180 
23:55	23.8	23.8	23.8	70	15.5	3	10	248	0.00	30.180 

CoCoRaHS
IN-AL-39
A2 Web Hosting
Creative Commons License
GoDaddy
Look for:

loaded 2017-12-12 17:06:13 • last modified 2010-11-18 10:43:29
Privacy PolicyDisclaimer
• wx.awcolley.com is powered by PmWiki v.2002016 •
• all content (unless otherwise noted) © 2017 A W Colley